sensor_id;sensor_type;location;lat;lon;timestamp;P1;durP1;ratioP1;P2;durP2;ratioP2
2542;SDS011;1116;51.502;7.414;2022-07-22T00:00:45;9.03;;;1.73;;
2542;SDS011;1116;51.502;7.414;2022-07-22T00:14:25;10.13;;;2.37;;
2542;SDS011;1116;51.502;7.414;2022-07-22T00:17:16;8.70;;;2.40;;
2542;SDS011;1116;51.502;7.414;2022-07-22T00:20:10;8.97;;;1.87;;
2542;SDS011;1116;51.502;7.414;2022-07-22T00:23:00;8.63;;;2.20;;
2542;SDS011;1116;51.502;7.414;2022-07-22T00:25:53;7.93;;;2.20;;
2542;SDS011;1116;51.502;7.414;2022-07-22T00:28:25;9.73;;;2.70;;
2542;SDS011;1116;51.502;7.414;2022-07-22T00:30:54;10.53;;;2.33;;
2542;SDS011;1116;51.502;7.414;2022-07-22T00:33:24;8.57;;;2.30;;
2542;SDS011;1116;51.502;7.414;2022-07-22T00:36:05;9.07;;;2.00;;
2542;SDS011;1116;51.502;7.414;2022-07-22T00:38:50;9.47;;;2.37;;
2542;SDS011;1116;51.502;7.414;2022-07-22T00:41:29;7.73;;;1.97;;
2542;SDS011;1116;51.502;7.414;2022-07-22T00:44:04;8.97;;;2.53;;
2542;SDS011;1116;51.502;7.414;2022-07-22T00:46:53;10.37;;;2.37;;
2542;SDS011;1116;51.502;7.414;2022-07-22T00:49:41;10.77;;;2.43;;
2542;SDS011;1116;51.502;7.414;2022-07-22T00:52:28;10.20;;;2.57;;
2542;SDS011;1116;51.502;7.414;2022-07-22T00:55:03;8.93;;;1.90;;
2542;SDS011;1116;51.502;7.414;2022-07-22T00:57:37;10.60;;;2.33;;
2542;SDS011;1116;51.502;7.414;2022-07-22T01:00:17;8.00;;;2.10;;
2542;SDS011;1116;51.502;7.414;2022-07-22T01:02:49;8.27;;;2.00;;
2542;SDS011;1116;51.502;7.414;2022-07-22T01:05:29;8.57;;;2.67;;
2542;SDS011;1116;51.502;7.414;2022-07-22T01:08:07;9.27;;;1.80;;
2542;SDS011;1116;51.502;7.414;2022-07-22T01:10:57;8.83;;;1.60;;
2542;SDS011;1116;51.502;7.414;2022-07-22T01:13:42;9.30;;;2.33;;
2542;SDS011;1116;51.502;7.414;2022-07-22T01:16:20;8.27;;;2.40;;
2542;SDS011;1116;51.502;7.414;2022-07-22T01:19:01;8.87;;;1.90;;
2542;SDS011;1116;51.502;7.414;2022-07-22T01:21:48;10.63;;;2.10;;
2542;SDS011;1116;51.502;7.414;2022-07-22T01:24:22;12.00;;;1.80;;
2542;SDS011;1116;51.502;7.414;2022-07-22T01:26:53;9.40;;;1.40;;
2542;SDS011;1116;51.502;7.414;2022-07-22T01:29:26;7.70;;;1.67;;
2542;SDS011;1116;51.502;7.414;2022-07-22T01:31:59;8.00;;;1.70;;
2542;SDS011;1116;51.502;7.414;2022-07-22T01:34:51;8.57;;;1.87;;
2542;SDS011;1116;51.502;7.414;2022-07-22T01:37:37;9.20;;;1.70;;
2542;SDS011;1116;51.502;7.414;2022-07-22T01:40:29;10.83;;;1.93;;
2542;SDS011;1116;51.502;7.414;2022-07-22T01:43:32;8.50;;;1.97;;
2542;SDS011;1116;51.502;7.414;2022-07-22T01:46:08;7.80;;;1.47;;
2542;SDS011;1116;51.502;7.414;2022-07-22T01:48:51;9.13;;;1.67;;
2542;SDS011;1116;51.502;7.414;2022-07-22T01:51:52;8.50;;;2.20;;
2542;SDS011;1116;51.502;7.414;2022-07-22T01:54:38;7.60;;;1.67;;
2542;SDS011;1116;51.502;7.414;2022-07-22T01:57:08;7.83;;;1.80;;
2542;SDS011;1116;51.502;7.414;2022-07-22T01:59:45;8.97;;;1.93;;
2542;SDS011;1116;51.502;7.414;2022-07-22T02:02:14;8.23;;;1.93;;
2542;SDS011;1116;51.502;7.414;2022-07-22T02:04:44;11.10;;;2.13;;
2542;SDS011;1116;51.502;7.414;2022-07-22T02:07:13;7.90;;;1.90;;
2542;SDS011;1116;51.502;7.414;2022-07-22T02:09:44;12.80;;;2.20;;
2542;SDS011;1116;51.502;7.414;2022-07-22T02:12:14;8.73;;;1.97;;
2542;SDS011;1116;51.502;7.414;2022-07-22T02:14:53;7.47;;;1.77;;
2542;SDS011;1116;51.502;7.414;2022-07-22T02:17:31;9.27;;;1.80;;
2542;SDS011;1116;51.502;7.414;2022-07-22T02:20:11;7.87;;;2.03;;
2542;SDS011;1116;51.502;7.414;2022-07-22T02:23:10;10.00;;;2.00;;
2542;SDS011;1116;51.502;7.414;2022-07-22T02:26:11;8.97;;;2.10;;
2542;SDS011;1116;51.502;7.414;2022-07-22T02:28:43;8.47;;;2.60;;
2542;SDS011;1116;51.502;7.414;2022-07-22T02:31:18;10.13;;;2.83;;
2542;SDS011;1116;51.502;7.414;2022-07-22T02:33:55;9.67;;;2.40;;
2542;SDS011;1116;51.502;7.414;2022-07-22T02:36:26;8.10;;;2.30;;
2542;SDS011;1116;51.502;7.414;2022-07-22T02:39:06;9.10;;;2.50;;
2542;SDS011;1116;51.502;7.414;2022-07-22T02:41:57;8.27;;;2.20;;
2542;SDS011;1116;51.502;7.414;2022-07-22T02:44:38;9.90;;;2.37;;
2542;SDS011;1116;51.502;7.414;2022-07-22T02:47:21;11.03;;;2.37;;
2542;SDS011;1116;51.502;7.414;2022-07-22T02:49:54;8.97;;;2.60;;
2542;SDS011;1116;51.502;7.414;2022-07-22T02:52:33;8.00;;;2.13;;
2542;SDS011;1116;51.502;7.414;2022-07-22T02:55:06;8.90;;;2.60;;
2542;SDS011;1116;51.502;7.414;2022-07-22T02:57:41;12.30;;;2.37;;
2542;SDS011;1116;51.502;7.414;2022-07-22T03:00:12;8.67;;;2.60;;
2542;SDS011;1116;51.502;7.414;2022-07-22T03:02:43;10.40;;;2.73;;
2542;SDS011;1116;51.502;7.414;2022-07-22T03:05:27;9.50;;;2.93;;
2542;SDS011;1116;51.502;7.414;2022-07-22T03:08:19;9.70;;;2.60;;
2542;SDS011;1116;51.502;7.414;2022-07-22T03:11:02;9.77;;;2.60;;
2542;SDS011;1116;51.502;7.414;2022-07-22T03:17:46;9.03;;;2.90;;
2542;SDS011;1116;51.502;7.414;2022-07-22T03:20:59;13.20;;;4.47;;
2542;SDS011;1116;51.502;7.414;2022-07-22T03:23:58;10.80;;;3.60;;
2542;SDS011;1116;51.502;7.414;2022-07-22T03:30:12;13.87;;;4.57;;
2542;SDS011;1116;51.502;7.414;2022-07-22T03:32:53;12.07;;;4.00;;
2542;SDS011;1116;51.502;7.414;2022-07-22T03:35:23;11.10;;;3.83;;
2542;SDS011;1116;51.502;7.414;2022-07-22T03:38:11;10.93;;;2.60;;
2542;SDS011;1116;51.502;7.414;2022-07-22T03:41:08;11.37;;;4.00;;
2542;SDS011;1116;51.502;7.414;2022-07-22T03:43:59;10.63;;;3.37;;
2542;SDS011;1116;51.502;7.414;2022-07-22T03:46:58;10.10;;;2.80;;
2542;SDS011;1116;51.502;7.414;2022-07-22T03:49:50;12.70;;;3.27;;
2542;SDS011;1116;51.502;7.414;2022-07-22T03:52:26;11.70;;;2.93;;
2542;SDS011;1116;51.502;7.414;2022-07-22T03:55:06;11.10;;;3.60;;
2542;SDS011;1116;51.502;7.414;2022-07-22T03:57:59;10.07;;;3.37;;
2542;SDS011;1116;51.502;7.414;2022-07-22T04:00:44;11.83;;;3.60;;
2542;SDS011;1116;51.502;7.414;2022-07-22T04:03:21;12.37;;;3.77;;
2542;SDS011;1116;51.502;7.414;2022-07-22T04:06:02;10.67;;;3.30;;
2542;SDS011;1116;51.502;7.414;2022-07-22T04:08:39;14.93;;;3.33;;
2542;SDS011;1116;51.502;7.414;2022-07-22T04:11:19;10.70;;;2.50;;
2542;SDS011;1116;51.502;7.414;2022-07-22T04:13:59;9.60;;;2.77;;
2542;SDS011;1116;51.502;7.414;2022-07-22T04:19:48;13.83;;;2.60;;
2542;SDS011;1116;51.502;7.414;2022-07-22T04:22:24;7.83;;;2.30;;
2542;SDS011;1116;51.502;7.414;2022-07-22T04:25:02;10.30;;;2.50;;
2542;SDS011;1116;51.502;7.414;2022-07-22T04:27:53;10.20;;;2.20;;
2542;SDS011;1116;51.502;7.414;2022-07-22T04:30:45;11.70;;;2.40;;
2542;SDS011;1116;51.502;7.414;2022-07-22T04:33:17;11.00;;;2.40;;
2542;SDS011;1116;51.502;7.414;2022-07-22T04:35:54;8.70;;;2.67;;
2542;SDS011;1116;51.502;7.414;2022-07-22T04:38:33;9.33;;;2.67;;
2542;SDS011;1116;51.502;7.414;2022-07-22T04:41:19;10.80;;;2.40;;
2542;SDS011;1116;51.502;7.414;2022-07-22T04:43:52;11.10;;;2.10;;
2542;SDS011;1116;51.502;7.414;2022-07-22T04:46:45;9.27;;;2.50;;
2542;SDS011;1116;51.502;7.414;2022-07-22T04:50:35;8.43;;;2.47;;
2542;SDS011;1116;51.502;7.414;2022-07-22T04:53:12;8.80;;;2.20;;
2542;SDS011;1116;51.502;7.414;2022-07-22T04:56:14;8.60;;;2.50;;
2542;SDS011;1116;51.502;7.414;2022-07-22T04:58:48;13.03;;;2.83;;
2542;SDS011;1116;51.502;7.414;2022-07-22T05:01:51;18.87;;;3.20;;
2542;SDS011;1116;51.502;7.414;2022-07-22T05:04:43;11.43;;;2.27;;
2542;SDS011;1116;51.502;7.414;2022-07-22T05:07:29;8.70;;;2.50;;
2542;SDS011;1116;51.502;7.414;2022-07-22T05:10:14;12.80;;;2.23;;
2542;SDS011;1116;51.502;7.414;2022-07-22T05:12:50;9.30;;;2.40;;
2542;SDS011;1116;51.502;7.414;2022-07-22T05:15:32;9.93;;;2.43;;
2542;SDS011;1116;51.502;7.414;2022-07-22T05:18:10;11.67;;;2.70;;
2542;SDS011;1116;51.502;7.414;2022-07-22T05:24:07;9.77;;;3.10;;
2542;SDS011;1116;51.502;7.414;2022-07-22T05:26:53;10.70;;;3.20;;
2542;SDS011;1116;51.502;7.414;2022-07-22T05:29:56;8.60;;;2.67;;
2542;SDS011;1116;51.502;7.414;2022-07-22T05:32:55;8.77;;;2.50;;
2542;SDS011;1116;51.502;7.414;2022-07-22T05:35:44;11.47;;;3.60;;
2542;SDS011;1116;51.502;7.414;2022-07-22T05:38:27;9.87;;;3.30;;
2542;SDS011;1116;51.502;7.414;2022-07-22T05:41:13;9.97;;;3.00;;
2542;SDS011;1116;51.502;7.414;2022-07-22T05:44:05;11.53;;;3.33;;
2542;SDS011;1116;51.502;7.414;2022-07-22T05:47:00;10.27;;;3.27;;
2542;SDS011;1116;51.502;7.414;2022-07-22T05:49:55;11.40;;;3.50;;
2542;SDS011;1116;51.502;7.414;2022-07-22T05:52:48;11.20;;;2.87;;
2542;SDS011;1116;51.502;7.414;2022-07-22T05:55:21;11.33;;;3.20;;
2542;SDS011;1116;51.502;7.414;2022-07-22T05:58:07;10.07;;;2.97;;
2542;SDS011;1116;51.502;7.414;2022-07-22T06:00:39;9.80;;;2.50;;
2542;SDS011;1116;51.502;7.414;2022-07-22T06:03:14;9.70;;;2.97;;
2542;SDS011;1116;51.502;7.414;2022-07-22T06:05:58;9.17;;;2.10;;
2542;SDS011;1116;51.502;7.414;2022-07-22T06:08:39;10.70;;;2.70;;
2542;SDS011;1116;51.502;7.414;2022-07-22T06:11:23;9.33;;;2.03;;
2542;SDS011;1116;51.502;7.414;2022-07-22T06:13:56;21.27;;;3.23;;
2542;SDS011;1116;51.502;7.414;2022-07-22T06:16:34;11.03;;;2.40;;
2542;SDS011;1116;51.502;7.414;2022-07-22T06:19:47;14.73;;;2.80;;
2542;SDS011;1116;51.502;7.414;2022-07-22T06:22:30;9.23;;;2.43;;
2542;SDS011;1116;51.502;7.414;2022-07-22T06:25:01;8.23;;;2.30;;
2542;SDS011;1116;51.502;7.414;2022-07-22T06:27:51;7.67;;;2.03;;
2542;SDS011;1116;51.502;7.414;2022-07-22T06:30:23;9.93;;;2.10;;
2542;SDS011;1116;51.502;7.414;2022-07-22T06:33:05;6.90;;;1.87;;
2542;SDS011;1116;51.502;7.414;2022-07-22T06:35:53;7.70;;;1.90;;
2542;SDS011;1116;51.502;7.414;2022-07-22T06:38:25;11.20;;;2.33;;
2542;SDS011;1116;51.502;7.414;2022-07-22T06:41:28;7.57;;;1.80;;
2542;SDS011;1116;51.502;7.414;2022-07-22T06:44:12;9.03;;;2.00;;
2542;SDS011;1116;51.502;7.414;2022-07-22T06:46:50;8.80;;;2.33;;
2542;SDS011;1116;51.502;7.414;2022-07-22T06:49:37;10.87;;;1.90;;
2542;SDS011;1116;51.502;7.414;2022-07-22T06:52:16;8.17;;;2.23;;
2542;SDS011;1116;51.502;7.414;2022-07-22T06:55:26;7.43;;;2.20;;
2542;SDS011;1116;51.502;7.414;2022-07-22T06:58:19;8.10;;;2.10;;
2542;SDS011;1116;51.502;7.414;2022-07-22T07:00:52;8.50;;;2.17;;
2542;SDS011;1116;51.502;7.414;2022-07-22T07:03:25;10.10;;;2.33;;
2542;SDS011;1116;51.502;7.414;2022-07-22T07:06:08;9.77;;;2.33;;
2542;SDS011;1116;51.502;7.414;2022-07-22T07:09:10;10.50;;;2.63;;
2542;SDS011;1116;51.502;7.414;2022-07-22T07:11:46;10.57;;;2.33;;
2542;SDS011;1116;51.502;7.414;2022-07-22T07:14:27;10.00;;;2.13;;
2542;SDS011;1116;51.502;7.414;2022-07-22T07:18:00;7.40;;;1.73;;
2542;SDS011;1116;51.502;7.414;2022-07-22T07:20:59;10.17;;;1.97;;
2542;SDS011;1116;51.502;7.414;2022-07-22T07:23:52;9.07;;;2.03;;
2542;SDS011;1116;51.502;7.414;2022-07-22T07:26:32;10.00;;;2.60;;
2542;SDS011;1116;51.502;7.414;2022-07-22T07:29:17;11.80;;;2.10;;
2542;SDS011;1116;51.502;7.414;2022-07-22T07:31:57;10.90;;;2.37;;
2542;SDS011;1116;51.502;7.414;2022-07-22T07:34:37;9.27;;;2.30;;
2542;SDS011;1116;51.502;7.414;2022-07-22T07:37:24;9.03;;;2.50;;
2542;SDS011;1116;51.502;7.414;2022-07-22T07:40:01;9.73;;;2.33;;
2542;SDS011;1116;51.502;7.414;2022-07-22T07:42:48;7.73;;;1.83;;
2542;SDS011;1116;51.502;7.414;2022-07-22T07:45:34;7.27;;;1.90;;
2542;SDS011;1116;51.502;7.414;2022-07-22T07:48:23;7.53;;;1.53;;
2542;SDS011;1116;51.502;7.414;2022-07-22T07:51:37;8.97;;;1.77;;
2542;SDS011;1116;51.502;7.414;2022-07-22T07:54:31;6.27;;;1.33;;
2542;SDS011;1116;51.502;7.414;2022-07-22T07:57:25;6.83;;;1.40;;
2542;SDS011;1116;51.502;7.414;2022-07-22T07:59:58;6.40;;;1.57;;
2542;SDS011;1116;51.502;7.414;2022-07-22T08:02:31;6.23;;;1.27;;
2542;SDS011;1116;51.502;7.414;2022-07-22T08:05:16;7.57;;;1.20;;
2542;SDS011;1116;51.502;7.414;2022-07-22T08:08:07;5.70;;;1.13;;
2542;SDS011;1116;51.502;7.414;2022-07-22T08:10:48;6.70;;;1.27;;
2542;SDS011;1116;51.502;7.414;2022-07-22T08:47:32;6.07;;;1.23;;
2542;SDS011;1116;51.502;7.414;2022-07-22T08:53:19;7.00;;;1.90;;
2542;SDS011;1116;51.502;7.414;2022-07-22T08:56:14;6.70;;;1.60;;
2542;SDS011;1116;51.502;7.414;2022-07-22T08:59:02;8.80;;;2.40;;
2542;SDS011;1116;51.502;7.414;2022-07-22T09:06:34;11.10;;;2.27;;
2542;SDS011;1116;51.502;7.414;2022-07-22T09:09:36;9.30;;;2.50;;
2542;SDS011;1116;51.502;7.414;2022-07-22T09:12:49;7.93;;;2.30;;
2542;SDS011;1116;51.502;7.414;2022-07-22T09:16:08;8.53;;;2.53;;
2542;SDS011;1116;51.502;7.414;2022-07-22T09:22:07;8.53;;;2.60;;
2542;SDS011;1116;51.502;7.414;2022-07-22T09:25:17;7.60;;;2.73;;
2542;SDS011;1116;51.502;7.414;2022-07-22T09:28:09;8.13;;;2.77;;
2542;SDS011;1116;51.502;7.414;2022-07-22T09:31:03;10.00;;;3.47;;
2542;SDS011;1116;51.502;7.414;2022-07-22T09:33:53;8.60;;;2.80;;
2542;SDS011;1116;51.502;7.414;2022-07-22T09:39:51;11.70;;;3.13;;
2542;SDS011;1116;51.502;7.414;2022-07-22T09:42:50;9.77;;;3.00;;
2542;SDS011;1116;51.502;7.414;2022-07-22T09:45:50;10.10;;;3.70;;
2542;SDS011;1116;51.502;7.414;2022-07-22T09:53:36;10.40;;;3.63;;
2542;SDS011;1116;51.502;7.414;2022-07-22T09:56:25;8.57;;;3.40;;
2542;SDS011;1116;51.502;7.414;2022-07-22T09:59:18;10.13;;;3.97;;
2542;SDS011;1116;51.502;7.414;2022-07-22T10:01:55;10.90;;;4.87;;
2542;SDS011;1116;51.502;7.414;2022-07-22T10:05:04;10.80;;;4.83;;
2542;SDS011;1116;51.502;7.414;2022-07-22T10:07:59;12.10;;;5.70;;
2542;SDS011;1116;51.502;7.414;2022-07-22T10:10:58;14.60;;;5.20;;
2542;SDS011;1116;51.502;7.414;2022-07-22T10:17:08;12.47;;;4.83;;
2542;SDS011;1116;51.502;7.414;2022-07-22T10:19:45;11.57;;;5.20;;
2542;SDS011;1116;51.502;7.414;2022-07-22T10:25:57;14.87;;;5.37;;
2542;SDS011;1116;51.502;7.414;2022-07-22T10:29:28;11.53;;;5.40;;
2542;SDS011;1116;51.502;7.414;2022-07-22T10:32:39;17.10;;;6.70;;
2542;SDS011;1116;51.502;7.414;2022-07-22T10:35:21;14.13;;;5.37;;
2542;SDS011;1116;51.502;7.414;2022-07-22T10:38:10;18.07;;;6.57;;
2542;SDS011;1116;51.502;7.414;2022-07-22T10:42:22;20.17;;;6.23;;
2542;SDS011;1116;51.502;7.414;2022-07-22T10:46:37;13.80;;;6.70;;
2542;SDS011;1116;51.502;7.414;2022-07-22T10:49:37;14.47;;;6.07;;
2542;SDS011;1116;51.502;7.414;2022-07-22T10:52:13;13.63;;;6.30;;
2542;SDS011;1116;51.502;7.414;2022-07-22T10:57:58;15.73;;;6.80;;
2542;SDS011;1116;51.502;7.414;2022-07-22T11:00:52;15.00;;;7.33;;
2542;SDS011;1116;51.502;7.414;2022-07-22T11:03:27;14.03;;;7.50;;
2542;SDS011;1116;51.502;7.414;2022-07-22T11:06:22;14.10;;;6.90;;
2542;SDS011;1116;51.502;7.414;2022-07-22T11:09:12;13.67;;;7.60;;
2542;SDS011;1116;51.502;7.414;2022-07-22T11:12:14;17.50;;;7.60;;
2542;SDS011;1116;51.502;7.414;2022-07-22T11:14:55;16.50;;;7.70;;
2542;SDS011;1116;51.502;7.414;2022-07-22T11:17:39;14.80;;;7.40;;
2542;SDS011;1116;51.502;7.414;2022-07-22T11:20:34;14.53;;;7.50;;
2542;SDS011;1116;51.502;7.414;2022-07-22T11:23:19;15.70;;;7.33;;
2542;SDS011;1116;51.502;7.414;2022-07-22T11:25:59;14.70;;;7.87;;
2542;SDS011;1116;51.502;7.414;2022-07-22T11:28:39;16.57;;;7.57;;
2542;SDS011;1116;51.502;7.414;2022-07-22T11:31:28;16.73;;;7.27;;
2542;SDS011;1116;51.502;7.414;2022-07-22T11:34:07;14.50;;;7.03;;
2542;SDS011;1116;51.502;7.414;2022-07-22T11:36:52;17.83;;;7.90;;
2542;SDS011;1116;51.502;7.414;2022-07-22T11:39:45;18.10;;;7.90;;
2542;SDS011;1116;51.502;7.414;2022-07-22T11:42:39;16.77;;;7.07;;
2542;SDS011;1116;51.502;7.414;2022-07-22T11:48:40;15.60;;;7.13;;
2542;SDS011;1116;51.502;7.414;2022-07-22T11:51:18;17.10;;;8.70;;
2542;SDS011;1116;51.502;7.414;2022-07-22T11:53:59;15.67;;;8.03;;
2542;SDS011;1116;51.502;7.414;2022-07-22T11:56:56;17.50;;;7.60;;
2542;SDS011;1116;51.502;7.414;2022-07-22T11:59:55;16.57;;;8.10;;
2542;SDS011;1116;51.502;7.414;2022-07-22T12:02:45;18.13;;;8.73;;
2542;SDS011;1116;51.502;7.414;2022-07-22T12:05:47;13.17;;;6.97;;
2542;SDS011;1116;51.502;7.414;2022-07-22T12:08:45;15.83;;;7.40;;
2542;SDS011;1116;51.502;7.414;2022-07-22T12:11:52;14.10;;;6.70;;
2542;SDS011;1116;51.502;7.414;2022-07-22T12:14:44;17.00;;;8.40;;
2542;SDS011;1116;51.502;7.414;2022-07-22T12:18:39;16.50;;;8.70;;
2542;SDS011;1116;51.502;7.414;2022-07-22T12:25:42;13.57;;;6.93;;
2542;SDS011;1116;51.502;7.414;2022-07-22T12:28:39;15.23;;;8.00;;
2542;SDS011;1116;51.502;7.414;2022-07-22T12:31:42;16.27;;;7.30;;
2542;SDS011;1116;51.502;7.414;2022-07-22T14:51:14;14.33;;;7.00;;
2542;SDS011;1116;51.502;7.414;2022-07-22T14:54:26;14.27;;;6.87;;
2542;SDS011;1116;51.502;7.414;2022-07-22T14:57:16;17.07;;;7.23;;
2542;SDS011;1116;51.502;7.414;2022-07-22T18:20:54;13.40;;;7.20;;
2542;SDS011;1116;51.502;7.414;2022-07-22T18:23:34;13.10;;;7.70;;
2542;SDS011;1116;51.502;7.414;2022-07-22T18:26:26;12.63;;;6.17;;
2542;SDS011;1116;51.502;7.414;2022-07-22T18:29:19;11.93;;;6.70;;
2542;SDS011;1116;51.502;7.414;2022-07-22T18:31:55;12.20;;;6.70;;
2542;SDS011;1116;51.502;7.414;2022-07-22T18:34:47;14.83;;;7.10;;
2542;SDS011;1116;51.502;7.414;2022-07-22T18:38:13;11.10;;;6.30;;
2542;SDS011;1116;51.502;7.414;2022-07-22T18:41:52;12.10;;;5.77;;
2542;SDS011;1116;51.502;7.414;2022-07-22T18:45:01;13.03;;;6.13;;
2542;SDS011;1116;51.502;7.414;2022-07-22T18:47:45;11.33;;;5.60;;
2542;SDS011;1116;51.502;7.414;2022-07-22T18:50:34;11.90;;;6.10;;
2542;SDS011;1116;51.502;7.414;2022-07-22T18:53:14;11.80;;;6.20;;
2542;SDS011;1116;51.502;7.414;2022-07-22T18:56:02;13.77;;;6.23;;
2542;SDS011;1116;51.502;7.414;2022-07-22T18:58:42;12.40;;;5.40;;
2542;SDS011;1116;51.502;7.414;2022-07-22T19:01:27;12.17;;;5.67;;
2542;SDS011;1116;51.502;7.414;2022-07-22T19:07:15;9.93;;;5.10;;
2542;SDS011;1116;51.502;7.414;2022-07-22T19:10:11;9.43;;;4.90;;
2542;SDS011;1116;51.502;7.414;2022-07-22T19:12:43;9.60;;;4.40;;
2542;SDS011;1116;51.502;7.414;2022-07-22T19:19:03;11.03;;;5.03;;
2542;SDS011;1116;51.502;7.414;2022-07-22T19:22:05;10.13;;;4.87;;
2542;SDS011;1116;51.502;7.414;2022-07-22T19:24:51;8.97;;;4.57;;
2542;SDS011;1116;51.502;7.414;2022-07-22T19:27:39;9.70;;;4.53;;
2542;SDS011;1116;51.502;7.414;2022-07-22T19:30:22;9.40;;;4.80;;
2542;SDS011;1116;51.502;7.414;2022-07-22T19:33:19;13.00;;;5.30;;
2542;SDS011;1116;51.502;7.414;2022-07-22T19:36:23;11.30;;;4.50;;
2542;SDS011;1116;51.502;7.414;2022-07-22T19:39:08;10.87;;;4.90;;
2542;SDS011;1116;51.502;7.414;2022-07-22T19:42:08;8.23;;;3.80;;
2542;SDS011;1116;51.502;7.414;2022-07-22T19:44:53;10.23;;;4.10;;
2542;SDS011;1116;51.502;7.414;2022-07-22T19:47:37;10.93;;;4.37;;
2542;SDS011;1116;51.502;7.414;2022-07-22T19:50:46;11.37;;;5.07;;
2542;SDS011;1116;51.502;7.414;2022-07-22T19:57:32;13.57;;;5.33;;
2542;SDS011;1116;51.502;7.414;2022-07-22T20:00:57;11.90;;;5.30;;
2542;SDS011;1116;51.502;7.414;2022-07-22T20:03:50;14.23;;;6.00;;
2542;SDS011;1116;51.502;7.414;2022-07-22T21:47:03;16.27;;;6.43;;
2542;SDS011;1116;51.502;7.414;2022-07-22T21:49:33;15.07;;;6.40;;
2542;SDS011;1116;51.502;7.414;2022-07-22T21:52:37;15.90;;;7.20;;
2542;SDS011;1116;51.502;7.414;2022-07-22T21:55:10;13.63;;;5.80;;
2542;SDS011;1116;51.502;7.414;2022-07-22T21:58:01;15.77;;;6.70;;
2542;SDS011;1116;51.502;7.414;2022-07-22T22:12:25;9.60;;;4.30;;
